Time;durP1;ratioP1;P1;durP2;ratioP2;P2;SDS_P1;SDS_P2;PMS_P1;PMS_P2;Temp;Humidity;BMP_temperature;BMP_pressure;BME280_temperature;BME280_humidity;BME280_pressure;Samples;Min_cycle;Max_cycle;Signal;HPM_P1;HPM_P2
2021/11/19 00:01:13;;;;;;;0.35;0.25;;;;;;;8.63;100.00;99061.66;1707558;82;21056;-69
2021/11/19 00:03:41;;;;;;;1.02;0.30;;;;;;;8.63;100.00;99055.98;1729523;81;21089;-70
2021/11/19 00:06:09;;;;;;;0.40;0.30;;;;;;;8.66;100.00;99057.13;1733781;81;21171;-70
2021/11/19 00:08:36;;;;;;;;;;;;;;;8.66;100.00;99050.63;1688018;81;21651;-71
2021/11/19 00:11:07;;;;;;;0.70;0.40;;;;;;;8.70;100.00;99056.05;1734411;81;20611;-69
2021/11/19 00:13:35;;;;;;;0.95;0.42;;;;;;;8.73;100.00;99048.08;1733643;81;21556;-70
2021/11/19 00:16:03;;;;;;;0.88;0.40;;;;;;;8.74;100.00;99047.18;1712637;81;21075;-68
2021/11/19 00:18:34;;;;;;;1.45;0.40;;;;;;;8.78;100.00;99040.52;1735763;81;22273;-69
2021/11/19 00:20:59;;;;;;;0.57;0.37;;;;;;;8.80;100.00;99038.22;1714437;81;21692;-69
2021/11/19 00:23:27;;;;;;;1.00;0.40;;;;;;;8.84;100.00;99049.31;1737140;81;22749;-69
2021/11/19 00:25:55;;;;;;;0.88;0.42;;;;;;;8.86;100.00;99033.99;1731434;81;21079;-69
2021/11/19 00:28:22;;;;;;;1.65;0.45;;;;;;;8.89;100.00;99042.11;1710672;81;21099;-71
2021/11/19 00:30:50;;;;;;;1.77;1.10;;;;;;;8.91;100.00;99033.77;1737096;81;21103;-70
2021/11/19 00:33:18;;;;;;;0.95;0.30;;;;;;;8.95;100.00;99032.67;1713585;81;20925;-69
2021/11/19 00:35:47;;;;;;;1.35;0.40;;;;;;;8.98;100.00;99039.02;1740519;81;21781;-69
2021/11/19 00:38:17;;;;;;;0.90;0.30;;;;;;;9.01;100.00;99029.75;1737296;81;20982;-70
2021/11/19 00:40:51;;;;;;;0.85;0.35;;;;;;;9.05;100.00;99052.59;1714551;81;20960;-70
2021/11/19 00:43:21;;;;;;;0.98;0.40;;;;;;;9.07;100.00;99041.14;1708998;81;21102;-69
2021/11/19 00:45:57;;;;;;;1.07;0.42;;;;;;;9.10;100.00;99041.02;1737549;81;21086;-70
2021/11/19 00:48:23;;;;;;;0.82;0.40;;;;;;;9.11;100.00;99027.06;1711050;82;21813;-69
2021/11/19 00:51:14;;;;;;;1.95;0.50;;;;;;;9.13;100.00;99032.17;1722576;82;21183;-69
2021/11/19 00:53:44;;;;;;;1.22;0.42;;;;;;;9.14;100.00;99064.66;1720334;81;21040;-70
2021/11/19 00:56:18;;;;;;;1.17;0.40;;;;;;;9.16;100.00;99064.13;1718917;82;20999;-70
2021/11/19 00:58:47;;;;;;;1.45;0.50;;;;;;;9.18;100.00;99040.13;1721533;81;20937;-70
2021/11/19 01:01:19;;;;;;;3.40;0.55;;;;;;;9.23;100.00;99024.73;1676476;83;21101;-70
2021/11/19 01:03:46;;;;;;;1.45;0.40;;;;;;;9.24;100.00;99051.14;1718370;82;21106;-70
2021/11/19 01:06:13;;;;;;;;;;;;;;;9.25;100.00;99045.88;1703770;82;20996;-70
2021/11/19 01:08:41;;;;;;;0.47;0.30;;;;;;;9.27;100.00;99057.50;1675020;82;20148;-70
2021/11/19 01:11:12;;;;;;;1.20;0.80;;;;;;;9.32;100.00;99058.94;1706483;82;21201;-70
2021/11/19 01:13:43;;;;;;;1.77;0.60;;;;;;;9.33;100.00;99054.59;1720617;81;21157;-69
2021/11/19 01:16:15;;;;;;;2.17;1.05;;;;;;;9.34;100.00;99077.11;1718671;82;21755;-70
2021/11/19 01:18:47;;;;;;;1.60;0.57;;;;;;;9.35;100.00;99064.45;1720680;81;20992;-70
2021/11/19 01:21:23;;;;;;;1.70;0.90;;;;;;;9.38;100.00;99051.26;1699129;83;21014;-69
2021/11/19 01:23:51;;;;;;;2.55;1.10;;;;;;;9.37;100.00;99063.92;1720463;81;21067;-69
2021/11/19 01:26:23;;;;;;;1.52;0.60;;;;;;;9.38;100.00;99057.77;1721001;82;21221;-70
2021/11/19 01:28:54;;;;;;;2.15;0.85;;;;;;;9.39;100.00;99064.69;1714858;82;21079;-70
2021/11/19 01:31:29;;;;;;;2.77;0.68;;;;;;;9.39;100.00;99065.98;1714907;81;21082;-70
2021/11/19 01:33:56;;;;;;;1.45;0.65;;;;;;;9.38;100.00;99057.77;1704490;81;21116;-69
2021/11/19 01:36:23;;;;;;;5.65;1.45;;;;;;;9.38;100.00;99047.34;1714002;81;21071;-69
2021/11/19 01:38:52;;;;;;;2.70;1.00;;;;;;;9.38;100.00;99052.56;1709771;81;21708;-70
2021/11/19 01:41:27;;;;;;;2.45;0.82;;;;;;;9.38;100.00;99043.44;1704547;81;21000;-70
2021/11/19 01:43:55;;;;;;;2.08;0.98;;;;;;;9.35;100.00;99047.52;1689782;83;21076;-70
2021/11/19 01:46:28;;;;;;;2.65;0.82;;;;;;;9.37;100.00;99061.31;1719810;81;21063;-69
2021/11/19 01:48:58;;;;;;;1.05;0.50;;;;;;;9.39;100.00;99067.30;1723930;81;20989;-70
2021/11/19 01:51:47;;;;;;;2.85;1.00;;;;;;;9.39;100.00;99069.89;1715022;81;21108;-70
2021/11/19 01:54:23;;;;;;;2.62;0.88;;;;;;;9.41;100.00;99070.67;1707230;82;20936;-70
2021/11/19 01:57:13;;;;;;;3.67;0.82;;;;;;;9.41;100.00;99058.48;1669864;84;21724;-71
2021/11/19 01:59:47;;;;;;;2.60;0.80;;;;;;;9.44;100.00;99073.11;1700879;82;20996;-71
2021/11/19 02:02:20;;;;;;;4.20;1.00;;;;;;;9.44;100.00;99069.63;1695667;83;20957;-71
2021/11/19 02:05:01;;;;;;;4.30;1.02;;;;;;;9.45;100.00;99068.27;1698077;82;21085;-71
2021/11/19 02:07:36;;;;;;;5.17;1.22;;;;;;;9.45;100.00;99066.96;1697180;84;21054;-71
2021/11/19 02:10:23;;;;;;;3.22;0.90;;;;;;;9.44;100.00;99063.98;1642763;85;22321;-70
2021/11/19 02:13:08;;;;;;;2.80;0.78;;;;;;;9.45;100.00;99071.34;1685852;82;21092;-70
2021/11/19 02:15:46;;;;;;;2.55;0.98;;;;;;;9.45;100.00;99075.25;1675019;84;21026;-70
2021/11/19 02:18:18;;;;;;;6.60;1.00;;;;;;;9.48;100.00;99071.17;1619776;87;22252;-71
2021/11/19 02:20:51;;;;;;;2.85;1.07;;;;;;;9.49;100.00;99098.44;1647577;85;21174;-71
2021/11/19 02:23:26;;;;;;;7.00;1.22;;;;;;;9.48;100.00;99102.44;1648123;85;21603;-71
2021/11/19 02:26:03;;;;;;;3.42;0.95;;;;;;;9.50;100.00;99104.05;1644257;85;21000;-71
2021/11/19 02:28:34;;;;;;;3.02;1.02;;;;;;;9.50;100.00;99080.59;1647742;86;21130;-70
2021/11/19 02:31:30;;;;;;;2.65;0.93;;;;;;;9.50;100.00;99091.02;1626943;85;21766;-69
2021/11/19 02:34:01;;;;;;;7.17;1.10;;;;;;;9.49;100.00;99099.73;1648170;85;20953;-69
2021/11/19 02:36:57;;;;;;;5.40;0.70;;;;;;;9.49;100.00;99097.12;1628629;86;21040;-70
2021/11/19 02:39:38;;;;;;;3.50;0.95;;;;;;;9.47;100.00;99083.37;1650322;85;21075;-71
2021/11/19 02:42:25;;;;;;;2.75;0.90;;;;;;;9.50;100.00;99089.72;1609003;87;22326;-70
2021/11/19 02:44:56;;;;;;;3.87;1.00;;;;;;;9.49;100.00;99099.73;1588604;88;21172;-70
2021/11/19 02:47:26;;;;;;;4.12;1.00;;;;;;;9.50;100.00;99119.69;1625852;87;21609;-70
2021/11/19 02:49:54;;;;;;;3.80;1.27;;;;;;;9.51;100.00;99127.03;1662918;84;21087;-70
2021/11/19 02:52:29;;;;;;;4.10;1.27;;;;;;;9.51;100.00;99135.69;1644202;85;21369;-70
2021/11/19 02:54:59;;;;;;;3.70;1.02;;;;;;;9.51;100.00;99133.55;1648520;82;21556;-70
2021/11/19 02:57:27;;;;;;;9.33;1.95;;;;;;;9.52;100.00;99126.97;1720988;81;21186;-70
2021/11/19 02:59:57;;;;;;;2.50;0.60;;;;;;;9.52;100.00;99130.88;1733240;82;20984;-70
2021/11/19 03:02:31;;;;;;;4.53;1.20;;;;;;;9.54;100.00;99135.99;1705947;82;21111;-70
2021/11/19 03:05:06;;;;;;;2.02;0.85;;;;;;;9.55;100.00;99110.30;1732103;81;21480;-70
2021/11/19 03:07:33;;;;;;;5.37;1.20;;;;;;;9.53;100.00;99134.32;1731349;81;21095;-70
2021/11/19 03:10:05;;;;;;;3.40;1.00;;;;;;;9.54;100.00;99136.83;1732594;81;21125;-70
2021/11/19 03:12:34;;;;;;;5.03;1.05;;;;;;;9.56;100.00;99134.99;1729766;81;21168;-70
2021/11/19 03:15:06;;;;;;;3.92;0.98;;;;;;;9.55;100.00;99142.44;1730049;81;20996;-69
2021/11/19 03:17:33;;;;;;;5.22;1.47;;;;;;;9.54;100.00;99143.34;1733861;81;21020;-70
2021/11/19 03:20:00;;;;;;;5.40;1.20;;;;;;;9.53;100.00;99145.58;1705187;82;21098;-70
2021/11/19 03:22:30;;;;;;;4.30;1.20;;;;;;;9.53;99.95;99142.14;1707143;82;21255;-70
2021/11/19 03:24:58;;;;;;;4.28;1.45;;;;;;;9.51;99.72;99147.41;1706662;82;21605;-70
2021/11/19 03:27:26;;;;;;;;;;;;;;;9.52;99.78;99164.76;1689265;82;21093;-70
2021/11/19 03:29:52;;;;;;;4.28;0.90;;;;;;;9.51;99.69;99159.14;1683310;82;20969;-70
2021/11/19 03:32:24;;;;;;;3.95;0.90;;;;;;;9.54;99.93;99162.05;1710609;82;21069;-70
2021/11/19 03:34:51;;;;;;;4.70;0.93;;;;;;;9.53;99.97;99152.56;1737193;81;21123;-70
2021/11/19 03:37:18;;;;;;;;;;;;;;;9.52;99.84;99146.52;1736462;81;21083;-70
2021/11/19 03:39:47;;;;;;;5.60;1.32;;;;;;;9.49;99.50;99129.70;1733358;81;20147;-70
2021/11/19 03:42:16;;;;;;;7.28;0.93;;;;;;;9.50;99.63;99148.35;1733906;81;21016;-71
2021/11/19 03:44:48;;;;;;;4.90;1.45;;;;;;;9.51;99.83;99134.85;1731965;81;20992;-71
2021/11/19 03:47:26;;;;;;;5.12;1.27;;;;;;;9.50;99.85;99137.92;1730446;81;21080;-70
2021/11/19 03:49:55;;;;;;;3.30;1.00;;;;;;;9.50;99.86;99120.15;1732230;81;21570;-70
2021/11/19 03:52:33;;;;;;;6.47;1.62;;;;;;;9.50;99.92;99141.84;1706118;82;20957;-70
2021/11/19 03:55:11;;;;;;;4.42;1.25;;;;;;;9.51;99.89;99153.93;1731336;81;21049;-71
2021/11/19 03:57:38;;;;;;;6.08;1.40;;;;;;;9.51;99.94;99160.45;1731028;81;21024;-70
2021/11/19 04:00:13;;;;;;;5.75;1.17;;;;;;;9.51;99.99;99144.81;1734291;81;25401;-71
2021/11/19 04:02:41;;;;;;;7.05;1.42;;;;;;;9.49;99.59;99134.92;1725714;81;21024;-70
2021/11/19 04:05:10;;;;;;;5.50;1.20;;;;;;;9.49;99.59;99149.25;1684939;82;21053;-70
2021/11/19 04:07:37;;;;;;;6.58;1.45;;;;;;;9.46;99.24;99144.20;1733543;81;21012;-70
2021/11/19 04:10:10;;;;;;;3.95;1.22;;;;;;;9.46;99.24;99127.27;1707096;82;21016;-71
2021/11/19 04:12:35;;;;;;;7.05;1.12;;;;;;;9.47;99.60;99150.28;1712492;82;21149;-70
2021/11/19 04:15:05;;;;;;;4.37;1.12;;;;;;;9.47;99.75;99140.70;1732851;81;21085;-70
2021/11/19 04:17:32;;;;;;;7.28;1.55;;;;;;;9.47;99.71;99143.30;1710675;82;21097;-70
2021/11/19 04:20:00;;;;;;;;;;;;;;;9.47;99.50;99153.73;1715317;81;21104;-70
2021/11/19 04:22:26;;;;;;;3.22;1.25;;;;;;;9.47;99.14;99151.12;1712762;82;20226;-70
2021/11/19 04:24:59;;;;;;;14.93;2.50;;;;;;;9.36;98.98;99128.22;1686013;82;22002;-70
2021/11/19 04:27:28;;;;;;;4.97;1.17;;;;;;;9.36;98.98;99128.22;1709538;82;21509;-70
2021/11/19 04:29:55;;;;;;;5.33;1.40;;;;;;;9.45;99.33;99156.86;1710278;82;21527;-70
2021/11/19 04:32:23;;;;;;;7.05;1.70;;;;;;;9.44;99.40;99127.83;1682615;82;21003;-70
2021/11/19 04:34:53;;;;;;;7.17;1.30;;;;;;;9.44;98.97;99139.98;1714808;81;21077;-70
2021/11/19 04:37:21;;;;;;;6.97;1.45;;;;;;;9.44;99.28;99133.04;1716185;82;21083;-70
2021/11/19 04:39:47;;;;;;;;;;;;;;;9.45;99.40;99142.53;1709992;82;21059;-70
2021/11/19 04:42:14;;;;;;;4.37;1.65;;;;;;;9.45;99.08;99152.95;1715080;81;20200;-70
2021/11/19 04:44:41;;;;;;;5.78;1.67;;;;;;;9.44;99.15;99126.96;1711886;82;21230;-70
2021/11/19 04:47:08;;;;;;;4.00;1.20;;;;;;;9.43;98.93;99128.73;1734947;81;20976;-70
2021/11/19 04:49:37;;;;;;;5.20;1.30;;;;;;;9.44;99.00;99130.44;1737877;81;21081;-70
2021/11/19 04:52:09;;;;;;;4.42;1.47;;;;;;;9.45;99.03;99130.80;1736689;81;21145;-70
2021/11/19 04:54:36;;;;;;;10.55;1.80;;;;;;;9.46;98.95;99117.31;1736279;81;20925;-70
2021/11/19 04:57:05;;;;;;;5.53;1.50;;;;;;;9.45;98.40;99125.59;1735603;81;21055;-70
2021/11/19 04:59:33;;;;;;;7.00;1.62;;;;;;;9.46;98.61;99119.45;1736819;81;21569;-70
2021/11/19 05:02:07;;;;;;;8.60;2.05;;;;;;;9.46;98.40;99114.23;1710584;82;21317;-70
2021/11/19 05:04:34;;;;;;;4.90;1.20;;;;;;;9.48;98.48;99125.89;1735740;81;21027;-71
2021/11/19 05:07:01;;;;;;;6.10;1.57;;;;;;;9.48;98.58;99124.13;1717072;82;21499;-71
2021/11/19 05:09:30;;;;;;;7.10;1.57;;;;;;;9.50;98.58;99130.11;1655085;83;20970;-71
2021/11/19 05:12:11;;;;;;;6.78;1.50;;;;;;;9.52;98.74;99102.21;1709609;82;21612;-70
2021/11/19 05:14:39;;;;;;;4.90;1.12;;;;;;;9.53;98.65;99097.84;1677826;83;21101;-71
2021/11/19 05:17:07;;;;;;;7.12;1.60;;;;;;;9.52;98.13;99113.94;1715311;82;21079;-71
2021/11/19 05:19:35;;;;;;;7.28;1.60;;;;;;;9.55;98.41;99117.69;1736464;81;20984;-71
2021/11/19 05:22:02;;;;;;;;;;;;;;;9.55;98.60;99125.50;1739436;81;21012;-71
2021/11/19 05:24:29;;;;;;;;;;;;;;;9.57;98.23;99133.22;1689887;82;20936;-71
2021/11/19 05:26:55;;;;;;;6.27;1.47;;;;;;;9.60;98.72;99138.27;1711190;82;21269;-71
2021/11/19 05:29:22;;;;;;;9.77;2.20;;;;;;;9.60;98.50;99128.68;1719369;82;20997;-71
2021/11/19 05:31:52;;;;;;;6.75;1.40;;;;;;;9.60;97.93;99131.29;1712245;82;21103;-71
2021/11/19 05:34:19;;;;;;;5.87;1.62;;;;;;;9.64;98.29;99126.78;1714420;82;21396;-71
2021/11/19 05:36:47;;;;;;;6.90;1.35;;;;;;;9.64;98.09;99122.40;1715162;82;21044;-71
2021/11/19 05:39:14;;;;;;;4.90;1.47;;;;;;;9.69;98.65;99126.52;1709551;82;21818;-71
2021/11/19 05:41:42;;;;;;;4.90;1.60;;;;;;;9.70;98.59;99108.20;1717082;81;21018;-70
2021/11/19 05:44:09;;;;;;;;;;;;;;;9.72;98.45;99113.31;1710146;82;21010;-71
2021/11/19 05:46:40;;;;;;;6.05;1.45;;;;;;;9.71;98.52;99122.91;1676915;83;20192;-71
2021/11/19 05:49:16;;;;;;;6.47;1.50;;;;;;;9.70;98.76;99123.00;1693852;83;21092;-71
2021/11/19 05:51:45;;;;;;;5.10;1.07;;;;;;;9.64;98.72;99115.88;1740825;81;21567;-71
2021/11/19 05:54:15;;;;;;;3.58;0.80;;;;;;;9.59;99.63;99126.17;1741050;81;21413;-71
2021/11/19 05:56:43;;;;;;;3.55;0.75;;;;;;;9.53;99.45;99114.31;1716492;81;21130;-71
2021/11/19 05:59:10;;;;;;;5.65;1.00;;;;;;;9.50;99.52;99122.29;1718834;81;20992;-71
2021/11/19 06:01:37;;;;;;;2.75;0.50;;;;;;;9.48;99.68;99113.70;1716565;82;21065;-71
2021/11/19 06:07:34;;;;;;;1.65;0.53;;;;;;;9.45;100.00;99115.63;1668248;84;21073;-70
2021/11/19 06:10:11;;;;;;;2.47;0.50;;;;;;;9.44;100.00;99117.41;1673215;84;21227;-70
2021/11/19 06:12:44;;;;;;;1.05;0.30;;;;;;;9.45;100.00;99115.63;1668294;84;26652;-70
2021/11/19 06:15:28;;;;;;;0.95;0.40;;;;;;;9.44;100.00;99126.96;1671282;84;21782;-70
2021/11/19 06:18:02;;;;;;;0.40;0.20;;;;;;;9.44;100.00;99117.41;1677243;84;21941;-70
2021/11/19 06:20:42;;;;;;;0.65;0.20;;;;;;;9.43;100.00;99132.64;1670590;84;21025;-70
2021/11/19 06:23:14;;;;;;;0.28;0.20;;;;;;;9.44;100.00;99138.25;1678908;84;21614;-71
2021/11/19 06:25:43;;;;;;;1.70;0.40;;;;;;;9.46;100.00;99149.41;1675529;84;21020;-71
2021/11/19 06:28:29;;;;;;;0.57;0.20;;;;;;;9.45;100.00;99141.69;1674994;84;21227;-68
2021/11/19 06:30:53;;;;;;;0.85;0.20;;;;;;;9.45;100.00;99153.42;1669284;84;21177;-68
2021/11/19 06:33:22;;;;;;;0.60;0.20;;;;;;;9.44;100.00;99152.58;1594859;87;21025;-68
2021/11/19 06:35:49;;;;;;;0.10;0.10;;;;;;;9.42;100.00;99158.33;1610631;87;21020;-67
2021/11/19 06:38:17;;;;;;;;;;;;;;;9.43;100.00;99149.58;1626284;86;21153;-67
2021/11/19 06:40:46;;;;;;;0.40;0.30;;;;;;;9.42;100.00;99149.20;1615085;87;20206;-68
2021/11/19 06:43:13;;;;;;;0.42;0.20;;;;;;;9.43;100.00;99144.36;1620829;86;21089;-68
2021/11/19 06:45:40;;;;;;;0.20;0.10;;;;;;;9.46;100.00;99143.36;1641074;86;21698;-68
2021/11/19 06:48:07;;;;;;;0.30;0.20;;;;;;;9.45;100.00;99142.53;1637261;87;20992;-68
2021/11/19 06:50:38;;;;;;;0.10;0.10;;;;;;;9.50;100.00;99152.26;1621780;85;21064;-68
2021/11/19 06:53:07;;;;;;;0.98;0.30;;;;;;;9.53;100.00;99158.61;1650398;85;21520;-68
2021/11/19 06:55:34;;;;;;;0.90;0.23;;;;;;;9.53;100.00;99158.61;1650529;85;21518;-68
2021/11/19 06:58:01;;;;;;;0.13;0.13;;;;;;;9.53;100.00;99158.61;1651298;85;21122;-67
2021/11/19 07:00:34;;;;;;;0.30;0.20;;;;;;;9.51;100.00;99150.02;1654774;85;21466;-68
2021/11/19 07:03:01;;;;;;;0.40;0.17;;;;;;;9.55;100.00;99145.48;1636108;82;21011;-67
2021/11/19 07:05:28;;;;;;;0.10;0.10;;;;;;;9.57;100.00;99154.07;1735852;81;20962;-67
2021/11/19 07:07:57;;;;;;;0.53;0.17;;;;;;;9.59;100.00;99151.77;1720723;81;21099;-67
2021/11/19 07:10:27;;;;;;;0.37;0.20;;;;;;;9.56;100.00;99153.23;1738008;81;21048;-67
2021/11/19 07:12:54;;;;;;;1.00;0.30;;;;;;;9.56;100.00;99151.94;1706556;81;21045;-67
2021/11/19 07:15:21;;;;;;;1.07;0.20;;;;;;;9.55;100.00;99150.27;1736059;81;21076;-67
2021/11/19 07:17:48;;;;;;;0.55;0.20;;;;;;;9.57;100.00;99141.88;1733544;82;21093;-68
2021/11/19 07:20:21;;;;;;;0.70;0.70;;;;;;;9.54;100.00;99149.86;1735861;81;21074;-68
2021/11/19 07:22:48;;;;;;;0.25;0.25;;;;;;;9.54;100.00;99155.07;1716151;82;21023;-67
2021/11/19 07:25:19;;;;;;;1.27;0.40;;;;;;;9.53;100.00;99162.52;1718661;82;21084;-68
2021/11/19 07:27:49;;;;;;;0.30;0.20;;;;;;;9.55;100.00;99168.94;1687516;82;21581;-67
2021/11/19 07:30:21;;;;;;;0.30;0.20;;;;;;;9.53;100.00;99170.81;1718249;82;21615;-66
2021/11/19 07:32:52;;;;;;;0.57;0.37;;;;;;;9.52;100.00;99169.97;1708851;82;21326;-67
2021/11/19 07:35:21;;;;;;;0.60;0.30;;;;;;;9.50;100.00;99161.38;1711083;82;21011;-67
2021/11/19 07:37:48;;;;;;;2.00;0.40;;;;;;;9.50;100.00;99157.94;1675783;82;21039;-67
2021/11/19 07:40:20;;;;;;;3.00;0.70;;;;;;;9.52;100.00;99166.50;1684466;82;20952;-67
2021/11/19 07:42:47;;;;;;;0.90;0.40;;;;;;;9.53;100.00;99163.83;1710338;81;20966;-67
2021/11/19 07:45:16;;;;;;;1.42;0.78;;;;;;;9.52;100.00;99161.28;1713675;81;21248;-67
2021/11/19 07:47:43;;;;;;;1.35;0.80;;;;;;;9.50;100.00;99174.41;1689362;82;21113;-67
2021/11/19 07:50:32;;;;;;;3.02;1.70;;;;;;;9.50;100.00;99161.38;1674577;82;21104;-67
2021/11/19 07:53:04;;;;;;;2.08;1.00;;;;;;;9.50;100.00;99153.56;1669193;84;20991;-67
2021/11/19 07:55:31;;;;;;;2.35;1.55;;;;;;;9.49;100.00;99162.28;1737628;81;21095;-66
2021/11/19 07:57:58;;;;;;;2.08;0.80;;;;;;;9.48;100.00;99165.82;1690265;82;27421;-66
2021/11/19 08:00:30;;;;;;;2.60;1.40;;;;;;;9.47;100.00;99158.94;1713503;81;21019;-67
2021/11/19 08:02:57;;;;;;;2.47;1.30;;;;;;;9.48;100.00;99160.61;1716581;81;21657;-67
2021/11/19 08:05:25;;;;;;;2.80;1.45;;;;;;;9.50;100.00;99156.17;1737161;81;21029;-67
2021/11/19 08:07:52;;;;;;;;;;;;;;;9.52;100.00;99167.36;1737606;81;21042;-67
2021/11/19 08:10:20;;;;;;;2.98;1.32;;;;;;;9.54;100.00;99167.27;1736344;81;21072;-66
2021/11/19 08:12:48;;;;;;;3.62;1.00;;;;;;;9.54;100.00;99160.28;1713373;82;21023;-67
2021/11/19 08:15:19;;;;;;;1.80;0.90;;;;;;;9.55;100.00;99167.20;1714870;82;21022;-67
2021/11/19 08:17:49;;;;;;;3.10;0.93;;;;;;;9.57;100.00;99160.13;1737585;81;21677;-66
2021/11/19 08:20:21;;;;;;;2.50;0.70;;;;;;;9.62;100.00;99164.64;1711322;82;21036;-67
2021/11/19 08:22:50;;;;;;;1.45;0.60;;;;;;;9.66;100.00;99172.30;1737148;81;22157;-66
2021/11/19 08:25:17;;;;;;;1.98;0.60;;;;;;;9.66;100.00;99154.05;1686328;82;21605;-67
2021/11/19 08:27:49;;;;;;;1.67;0.68;;;;;;;9.68;100.00;99154.82;1735621;81;21123;-67
2021/11/19 08:30:27;;;;;;;1.30;0.60;;;;;;;9.68;100.00;99148.30;1732095;81;21004;-67
2021/11/19 08:32:53;;;;;;;1.55;0.60;;;;;;;9.71;100.00;99159.41;1735306;81;20957;-67
2021/11/19 08:35:24;;;;;;;0.85;0.50;;;;;;;9.74;100.00;99158.41;1691400;82;21874;-67
2021/11/19 08:37:54;;;;;;;1.67;0.90;;;;;;;9.74;100.00;99161.01;1735351;81;20985;-67
2021/11/19 08:40:25;;;;;;;2.08;0.85;;;;;;;9.73;100.00;99177.12;1709182;82;20958;-67
2021/11/19 08:42:53;;;;;;;0.80;0.50;;;;;;;9.73;100.00;99172.38;1710482;82;21155;-67
2021/11/19 08:45:23;;;;;;;1.47;0.90;;;;;;;9.72;100.00;99171.53;1736091;81;21039;-68
2021/11/19 08:47:59;;;;;;;0.72;0.40;;;;;;;9.72;100.00;99173.27;1737874;81;21260;-67
2021/11/19 08:50:30;;;;;;;1.45;0.60;;;;;;;9.72;100.00;99147.20;1725042;82;20918;-67
2021/11/19 08:53:00;;;;;;;0.98;0.60;;;;;;;9.71;100.00;99171.60;1707902;82;21010;-68
2021/11/19 08:55:28;;;;;;;0.82;0.40;;;;;;;9.72;100.00;99155.89;1660999;84;21080;-67
2021/11/19 08:57:57;;;;;;;4.25;1.30;;;;;;;9.75;100.00;99167.93;1700506;82;21057;-68
2021/11/19 09:00:31;;;;;;;1.25;0.65;;;;;;;9.79;100.00;99159.01;1704414;82;21333;-68
2021/11/19 09:03:07;;;;;;;1.30;0.55;;;;;;;9.81;100.00;99153.26;1702892;82;21600;-68
2021/11/19 09:05:35;;;;;;;1.87;0.80;;;;;;;9.86;100.00;99156.47;1703132;82;21088;-69
2021/11/19 09:08:06;;;;;;;2.47;0.80;;;;;;;9.88;100.00;99145.47;1704913;82;21052;-69
2021/11/19 09:10:33;;;;;;;1.45;0.70;;;;;;;9.86;100.00;99139.05;1678602;82;21040;-69
2021/11/19 09:13:00;;;;;;;4.55;1.20;;;;;;;9.85;100.00;99161.28;1679974;82;21094;-69
2021/11/19 09:15:27;;;;;;;4.12;1.75;;;;;;;9.85;100.00;99163.89;1705642;82;21076;-68
2021/11/19 09:18:20;;;;;;;4.17;1.15;;;;;;;9.86;100.00;99157.77;1705646;82;21102;-69
2021/11/19 09:21:00;;;;;;;2.70;1.22;;;;;;;9.86;100.00;99153.86;1701755;82;21052;-69
2021/11/19 09:23:32;;;;;;;4.90;2.20;;;;;;;9.87;100.00;99139.89;1694477;83;21105;-70
2021/11/19 09:26:07;;;;;;;6.03;2.17;;;;;;;9.87;100.00;99142.49;1674787;83;21025;-70
2021/11/19 09:28:37;;;;;;;4.25;1.65;;;;;;;9.86;100.00;99161.69;1692284;83;21716;-70
2021/11/19 09:31:07;;;;;;;5.97;2.25;;;;;;;9.85;100.00;99149.55;1698770;83;21800;-69
2021/11/19 09:33:35;;;;;;;7.50;2.42;;;;;;;9.85;100.00;99136.52;1692305;83;21435;-69
2021/11/19 09:36:03;;;;;;;4.62;2.05;;;;;;;9.89;100.00;99148.48;1696873;83;20998;-70
2021/11/19 09:38:30;;;;;;;4.62;1.50;;;;;;;9.91;100.00;99150.52;1640516;85;22105;-70
2021/11/19 09:41:36;;;;;;;2.27;1.02;;;;;;;9.93;100.00;99130.42;1633972;84;21028;-70
2021/11/19 09:44:23;;;;;;;5.50;1.30;;;;;;;9.96;100.00;99114.61;1658019;84;21041;-69
2021/11/19 09:47:16;;;;;;;5.72;1.95;;;;;;;9.98;100.00;99119.29;1701825;82;21591;-69
2021/11/19 09:50:08;;;;;;;3.87;1.12;;;;;;;10.03;100.00;99122.49;1695624;83;21742;-69
2021/11/19 09:53:01;;;;;;;2.80;1.30;;;;;;;10.08;100.00;99120.48;1658347;83;21187;-70
2021/11/19 09:56:06;;;;;;;4.50;1.50;;;;;;;10.08;100.00;99102.22;1687779;83;20938;-71
2021/11/19 09:58:50;;;;;;;4.42;1.60;;;;;;;10.11;100.00;99104.26;1691565;83;21093;-70
2021/11/19 10:02:00;;;;;;;2.90;1.32;;;;;;;10.18;100.00;99093.41;1668983;84;21081;-71
2021/11/19 10:04:54;;;;;;;2.83;1.32;;;;;;;10.21;100.00;99081.96;1708702;83;20992;-68
2021/11/19 10:07:53;;;;;;;3.17;1.10;;;;;;;10.24;100.00;99079.17;1670764;84;21072;-69
2021/11/19 10:10:40;;;;;;;4.62;1.62;;;;;;;10.22;100.00;99083.20;1684345;84;21057;-69
2021/11/19 10:13:32;;;;;;;3.80;1.80;;;;;;;10.20;100.00;99088.12;1687924;84;21029;-71
2021/11/19 10:16:36;;;;;;;5.65;2.05;;;;;;;10.21;100.00;99093.70;1704202;83;21005;-71
2021/11/19 10:19:24;;;;;;;7.92;1.75;;;;;;;10.21;100.00;99092.40;1704820;82;21030;-69
2021/11/19 10:22:28;;;;;;;6.03;2.02;;;;;;;10.19;100.00;99068.98;1653518;85;20982;-70
2021/11/19 10:25:33;;;;;;;3.95;1.72;;;;;;;10.20;100.00;99098.55;1697982;83;21112;-70
2021/11/19 10:28:05;;;;;;;8.80;2.58;;;;;;;10.21;100.00;99062.39;1664667;84;21578;-70
2021/11/19 10:30:50;;;;;;;4.72;2.05;;;;;;;10.22;100.00;99064.94;1665453;84;20950;-70
2021/11/19 10:33:38;;;;;;;4.55;1.82;;;;;;;10.23;100.00;99074.90;1669317;83;21060;-70
2021/11/19 10:36:19;;;;;;;;;;;;;;;10.22;100.00;99074.50;1707911;82;21683;-71
2021/11/19 10:39:32;;;;;;;6.05;1.80;;;;;;;10.24;100.00;99087.01;1675189;83;20208;-69
2021/11/19 10:42:36;;;;;;;4.80;1.80;;;;;;;10.23;100.00;99085.33;1701988;82;20989;-71
2021/11/19 10:45:35;;;;;;;8.08;1.90;;;;;;;10.20;100.00;99101.16;1589217;89;21632;-69
2021/11/19 10:48:25;;;;;;;4.67;1.90;;;;;;;10.19;100.00;99078.59;1612370;88;21076;-72
2021/11/19 10:51:31;;;;;;;7.37;2.67;;;;;;;10.19;100.00;99096.85;1632239;85;21274;-70
2021/11/19 10:54:24;;;;;;;6.90;2.62;;;;;;;10.18;100.00;99109.53;1646119;86;21151;-69
2021/11/19 10:57:18;;;;;;;9.48;2.17;;;;;;;10.19;100.00;99094.24;1647418;86;21108;-69
2021/11/19 11:00:27;;;;;;;8.55;2.85;;;;;;;10.19;100.00;99094.24;1632553;86;21129;-70
2021/11/19 11:02:55;;;;;;;12.07;3.00;;;;;;;10.20;100.00;99101.16;1590898;89;21142;-68
2021/11/19 11:05:39;;;;;;;11.97;3.77;;;;;;;10.19;100.00;99086.41;1590202;89;21143;-69
2021/11/19 11:08:23;;;;;;;13.38;3.08;;;;;;;10.20;100.00;99092.87;1590511;89;21219;-67
2021/11/19 11:11:04;;;;;;;14.30;3.80;;;;;;;10.22;100.00;99094.06;1587824;89;21095;-69
2021/11/19 11:13:45;;;;;;;17.55;4.30;;;;;;;10.22;100.00;99092.33;1572775;90;21726;-68
2021/11/19 11:16:24;;;;;;;11.50;3.25;;;;;;;10.24;100.00;99100.05;1556804;90;21661;-68
2021/11/19 11:19:14;;;;;;;18.95;3.62;;;;;;;10.27;100.00;99097.30;1556464;89;21933;-69
2021/11/19 11:22:01;;;;;;;14.28;3.52;;;;;;;10.28;100.00;99091.17;1578815;87;21084;-68
2021/11/19 11:24:42;;;;;;;10.23;3.05;;;;;;;10.33;100.00;99101.33;1642379;86;21082;-69
2021/11/19 11:27:34;;;;;;;12.70;3.30;;;;;;;10.34;100.00;99097.81;1640731;86;21054;-71
2021/11/19 11:30:06;;;;;;;10.20;3.55;;;;;;;10.37;100.00;99091.12;1643978;86;21207;-69
2021/11/19 11:33:04;;;;;;;17.37;3.35;;;;;;;10.42;100.00;99086.02;1637561;86;21025;-69
2021/11/19 11:35:48;;;;;;;13.25;3.60;;;;;;;10.46;100.00;99085.37;1636878;86;21140;-69
2021/11/19 11:38:26;;;;;;;14.15;3.55;;;;;;;10.48;100.00;99090.05;1635932;86;21149;-70
2021/11/19 11:41:26;;;;;;;11.55;3.85;;;;;;;10.51;100.00;99080.27;1718041;81;21072;-69
2021/11/19 11:44:16;;;;;;;15.13;3.58;;;;;;;10.57;100.00;99104.34;1719340;82;21001;-70
2021/11/19 11:47:12;;;;;;;17.02;3.80;;;;;;;10.62;100.00;99091.87;1720868;81;21244;-70
2021/11/19 11:49:52;;;;;;;13.62;3.62;;;;;;;10.67;100.00;99095.03;1723246;81;21104;-71
2021/11/19 11:52:40;;;;;;;7.37;3.02;;;;;;;10.70;100.00;99081.83;1694325;83;20981;-68
2021/11/19 11:55:18;;;;;;;15.50;3.62;;;;;;;10.71;100.00;99084.80;1712173;82;21079;-70
2021/11/19 11:57:55;;;;;;;10.20;3.33;;;;;;;10.70;100.00;99092.27;1717393;81;21549;-69
2021/11/19 12:00:46;;;;;;;10.82;3.20;;;;;;;10.74;100.00;99101.59;1712272;81;21086;-70
2021/11/19 12:03:23;;;;;;;13.13;3.58;;;;;;;10.77;100.00;99102.72;1632544;86;21543;-69
2021/11/19 12:06:11;;;;;;;12.28;3.58;;;;;;;10.77;100.00;99088.36;1634293;86;21768;-70
2021/11/19 12:09:20;;;;;;;13.85;3.20;;;;;;;10.78;100.00;99082.19;1602422;87;21024;-69
2021/11/19 12:12:18;;;;;;;12.78;3.58;;;;;;;10.81;100.00;99095.10;1614583;87;26859;-71
2021/11/19 12:15:11;;;;;;;13.38;3.50;;;;;;;10.82;100.00;99083.71;1619351;87;21558;-70